createdAt,value
2019-03-16T00:00:23.848Z,8.40
2019-03-16T00:04:28.416Z,8.50
2019-03-16T00:08:32.924Z,8.60
2019-03-16T00:12:37.564Z,8.60
2019-03-16T00:16:42.120Z,8.60
2019-03-16T00:20:46.698Z,8.50
2019-03-16T00:24:51.293Z,8.60
2019-03-16T00:28:55.828Z,8.60
2019-03-16T00:33:00.720Z,8.50
2019-03-16T00:37:05.302Z,8.50
2019-03-16T00:41:09.903Z,8.50
2019-03-16T00:45:14.452Z,8.50
2019-03-16T00:49:18.992Z,8.50
2019-03-16T00:53:23.869Z,8.50
2019-03-16T00:57:28.442Z,8.50
2019-03-16T01:01:33.130Z,8.50
2019-03-16T01:05:37.695Z,8.50
2019-03-16T01:09:43.573Z,8.50
2019-03-16T01:13:48.533Z,8.50
2019-03-16T01:17:53.103Z,8.50
2019-03-16T01:21:57.660Z,8.50
2019-03-16T01:26:02.269Z,8.50
2019-03-16T01:30:07.278Z,8.40
2019-03-16T01:34:11.832Z,8.40
2019-03-16T01:38:16.390Z,8.40
2019-03-16T01:42:20.952Z,8.50
2019-03-16T01:46:25.513Z,8.50
2019-03-16T01:50:30.078Z,8.50
2019-03-16T01:54:34.620Z,8.40
2019-03-16T01:58:39.197Z,8.40
2019-03-16T02:02:54.295Z,8.40
2019-03-16T02:06:50.017Z,8.30
2019-03-16T02:10:54.719Z,8.40
2019-03-16T02:14:59.296Z,8.20
2019-03-16T02:19:03.849Z,8.20
2019-03-16T02:23:08.401Z,8.30
2019-03-16T02:27:12.963Z,8.20
2019-03-16T02:31:17.642Z,8.10
2019-03-16T02:35:22.148Z,8.10
2019-03-16T02:39:26.709Z,8.10
2019-03-16T02:43:31.279Z,8.10
2019-03-16T02:47:35.846Z,8.00
2019-03-16T02:51:40.420Z,8.10
2019-03-16T02:55:44.935Z,8.10
2019-03-16T02:59:49.493Z,8.20
2019-03-16T03:03:54.169Z,8.10
2019-03-16T03:07:58.885Z,8.10
2019-03-16T03:12:03.512Z,8.10
2019-03-16T03:16:08.065Z,8.20
2019-03-16T03:20:12.713Z,8.30
2019-03-16T03:24:17.279Z,8.30
2019-03-16T03:28:21.820Z,8.20
2019-03-16T03:32:26.411Z,8.30
2019-03-16T03:36:30.920Z,8.30
2019-03-16T03:40:35.587Z,8.40
2019-03-16T03:44:40.147Z,8.40
2019-03-16T03:48:44.722Z,8.40
2019-03-16T03:52:49.279Z,8.40
2019-03-16T03:56:53.793Z,8.40
2019-03-16T04:00:58.471Z,8.40
2019-03-16T04:05:03.009Z,8.40
2019-03-16T04:09:08.914Z,8.40
2019-03-16T04:13:13.594Z,8.40
2019-03-16T04:17:18.129Z,8.40
2019-03-16T04:21:22.689Z,8.40
2019-03-16T04:25:27.257Z,8.40
2019-03-16T04:29:31.857Z,8.40
2019-03-16T04:33:36.425Z,8.40
2019-03-16T04:37:40.941Z,8.40
2019-03-16T04:41:45.500Z,8.30
2019-03-16T04:45:50.076Z,8.30
2019-03-16T04:49:54.629Z,8.40
2019-03-16T04:53:59.204Z,8.40
2019-03-16T04:58:03.728Z,8.40
2019-03-16T05:02:08.361Z,8.40
2019-03-16T05:06:12.941Z,8.40
2019-03-16T05:10:17.516Z,8.40
2019-03-16T05:14:22.085Z,8.40
2019-03-16T05:18:26.613Z,8.30
2019-03-16T05:22:31.177Z,8.30
2019-03-16T05:26:35.736Z,8.40
2019-03-16T05:30:40.307Z,8.40
2019-03-16T05:34:55.849Z,8.40
2019-03-16T05:38:51.040Z,8.40
2019-03-16T05:42:55.597Z,8.30
2019-03-16T05:47:00.171Z,8.40
2019-03-16T05:51:04.745Z,8.40
2019-03-16T05:55:09.587Z,8.30
2019-03-16T05:59:14.105Z,8.20
2019-03-16T06:03:18.794Z,8.10
2019-03-16T06:07:23.362Z,8.00
2019-03-16T06:11:27.917Z,8.00
2019-03-16T06:15:32.511Z,7.80
2019-03-16T06:19:37.030Z,7.80
2019-03-16T06:23:41.662Z,7.80
2019-03-16T06:27:46.233Z,7.80
2019-03-16T06:31:50.805Z,7.80
2019-03-16T06:35:55.356Z,7.80
2019-03-16T06:39:59.857Z,7.70
2019-03-16T06:44:04.404Z,7.60
2019-03-16T06:48:09.017Z,7.60
2019-03-16T06:52:13.580Z,7.60
2019-03-16T06:56:21.317Z,7.50
2019-03-16T07:00:27.061Z,7.50
2019-03-16T07:04:31.578Z,7.50
2019-03-16T07:08:36.144Z,7.50
2019-03-16T07:12:40.750Z,7.50
2019-03-16T07:16:45.301Z,7.60
2019-03-16T07:20:51.117Z,7.60
2019-03-16T07:24:58.617Z,7.70
2019-03-16T07:29:04.036Z,7.70
2019-03-16T07:33:08.645Z,7.80
2019-03-16T07:37:13.212Z,7.80
2019-03-16T07:41:17.760Z,7.80
2019-03-16T07:45:22.304Z,7.80
2019-03-16T07:49:26.901Z,7.80
2019-03-16T07:53:31.592Z,7.90
2019-03-16T07:57:40.332Z,7.90
2019-03-16T08:01:42.348Z,8.00
2019-03-16T08:05:47.842Z,8.00
2019-03-16T08:09:52.476Z,8.00
2019-03-16T08:13:57.990Z,8.10
2019-03-16T08:18:02.640Z,8.10
2019-03-16T08:22:07.312Z,8.20
2019-03-16T08:26:11.957Z,8.20
2019-03-16T08:30:16.574Z,8.20
2019-03-16T08:34:21.190Z,8.20
2019-03-16T08:38:28.900Z,8.30
2019-03-16T08:42:33.502Z,8.30
2019-03-16T08:46:38.095Z,8.30
2019-03-16T08:50:45.726Z,8.20
2019-03-16T08:54:50.403Z,8.30
2019-03-16T08:58:55.053Z,8.30
2019-03-16T09:02:59.696Z,8.30
2019-03-16T09:07:04.380Z,8.30
2019-03-16T09:11:08.957Z,8.30
2019-03-16T09:15:13.604Z,8.30
2019-03-16T09:19:18.148Z,8.30
2019-03-16T09:23:22.702Z,8.20
2019-03-16T09:27:31.481Z,8.20
2019-03-16T09:31:33.475Z,8.20
2019-03-16T09:35:38.517Z,8.20
2019-03-16T09:39:43.121Z,8.20
2019-03-16T09:43:47.817Z,8.20
2019-03-16T09:47:52.418Z,8.20
2019-03-16T09:51:57.071Z,8.10
2019-03-16T09:56:01.682Z,8.10
2019-03-16T10:00:07.707Z,8.20
2019-03-16T10:04:12.301Z,8.10
2019-03-16T10:08:19.037Z,8.00
2019-03-16T10:12:23.192Z,8.10
2019-03-16T10:16:27.793Z,8.00
2019-03-16T10:20:32.403Z,7.90
2019-03-16T10:24:37.002Z,8.00
2019-03-16T10:28:43.904Z,8.00
2019-03-16T10:32:47.833Z,8.10
2019-03-16T10:36:53.755Z,8.10
2019-03-16T10:40:58.308Z,8.10
2019-03-16T10:45:02.930Z,8.00
2019-03-16T10:49:07.536Z,8.10
2019-03-16T10:53:12.167Z,8.20
2019-03-16T10:57:16.706Z,8.20
2019-03-16T11:01:21.290Z,8.30
2019-03-16T11:05:25.865Z,8.30
2019-03-16T11:09:30.501Z,8.40
2019-03-16T11:13:36.208Z,8.40
2019-03-16T11:17:40.789Z,8.50
2019-03-16T11:21:45.417Z,8.60
2019-03-16T11:25:50.055Z,8.70
2019-03-16T11:29:54.692Z,8.80
2019-03-16T11:33:59.281Z,9.00
2019-03-16T11:38:03.840Z,9.10
2019-03-16T11:42:08.502Z,9.20
2019-03-16T11:46:13.089Z,9.40
2019-03-16T11:50:17.719Z,9.50
2019-03-16T11:54:22.371Z,9.80
2019-03-16T11:58:26.961Z,10.00
2019-03-16T12:02:31.579Z,10.20
2019-03-16T12:06:36.208Z,10.40
2019-03-16T12:10:40.877Z,10.60
2019-03-16T12:14:45.499Z,10.80
2019-03-16T12:18:50.201Z,10.90
2019-03-16T12:22:54.838Z,10.90
2019-03-16T12:26:59.454Z,11.00
2019-03-16T12:31:04.109Z,11.10
2019-03-16T12:35:08.825Z,11.20
2019-03-16T12:39:13.418Z,11.10
2019-03-16T12:43:18.042Z,11.10
2019-03-16T12:47:22.669Z,11.30
2019-03-16T12:51:27.447Z,11.20
2019-03-16T12:55:32.052Z,11.30
2019-03-16T12:59:46.415Z,11.40
2019-03-16T13:03:42.892Z,11.40
2019-03-16T13:07:47.509Z,11.50
2019-03-16T13:11:52.136Z,11.40
2019-03-16T13:15:58.110Z,11.30
2019-03-16T13:20:04.219Z,11.30
2019-03-16T13:24:08.752Z,11.40
2019-03-16T13:28:13.364Z,11.50
2019-03-16T13:32:18.112Z,11.40
2019-03-16T13:36:22.824Z,11.40
2019-03-16T13:40:27.565Z,11.50
2019-03-16T13:44:32.139Z,11.60
2019-03-16T13:48:36.745Z,11.40
2019-03-16T13:52:41.378Z,11.50
2019-03-16T13:56:47.218Z,11.60
2019-03-16T14:00:51.871Z,11.60
2019-03-16T14:04:56.492Z,11.70
2019-03-16T14:09:01.524Z,11.80
2019-03-16T14:13:06.373Z,11.80
2019-03-16T14:17:11.013Z,11.70
2019-03-16T14:21:15.679Z,11.70
2019-03-16T14:25:24.946Z,11.80
2019-03-16T14:29:30.294Z,11.60
2019-03-16T14:33:34.961Z,11.70
2019-03-16T14:37:40.014Z,11.70
2019-03-16T14:41:44.647Z,11.70
2019-03-16T14:45:55.528Z,11.70
2019-03-16T14:50:00.441Z,11.80
2019-03-16T14:54:06.673Z,11.80
2019-03-16T14:58:11.396Z,11.70
2019-03-16T15:02:15.989Z,11.70
2019-03-16T15:06:20.620Z,11.70
2019-03-16T15:10:25.234Z,11.80
2019-03-16T15:14:29.881Z,11.80
2019-03-16T15:18:34.881Z,11.90
2019-03-16T15:22:39.531Z,11.90
2019-03-16T15:26:47.155Z,12.00
2019-03-16T15:30:54.010Z,12.00
2019-03-16T15:34:58.663Z,11.90
2019-03-16T15:39:07.918Z,11.80
2019-03-16T15:43:15.452Z,11.70
2019-03-16T15:47:20.150Z,11.60
2019-03-16T15:51:24.846Z,11.70
2019-03-16T15:55:32.273Z,11.60
2019-03-16T15:59:36.988Z,11.70
2019-03-16T16:03:42.885Z,11.60
2019-03-16T16:07:47.557Z,11.70
2019-03-16T16:11:52.220Z,11.70
2019-03-16T16:15:56.877Z,11.60
2019-03-16T16:20:01.470Z,11.70
2019-03-16T16:24:06.113Z,11.60
2019-03-16T16:28:10.753Z,11.50
2019-03-16T16:32:15.362Z,11.60
2019-03-16T16:36:19.960Z,11.60
2019-03-16T16:40:24.604Z,11.70
2019-03-16T16:44:29.331Z,11.70
2019-03-16T16:48:33.938Z,11.60
2019-03-16T16:52:38.541Z,11.60
2019-03-16T16:56:43.133Z,11.60
2019-03-16T17:00:47.725Z,11.60
2019-03-16T17:04:52.392Z,11.60
2019-03-16T17:08:57.005Z,11.60
2019-03-16T17:13:01.629Z,11.70
2019-03-16T17:17:06.205Z,11.70
2019-03-16T17:21:14.525Z,11.60
2019-03-16T17:25:19.105Z,11.70
2019-03-16T17:29:23.667Z,11.60
2019-03-16T17:33:28.365Z,11.70
2019-03-16T17:37:32.928Z,11.80
2019-03-16T17:41:37.532Z,11.80
2019-03-16T17:45:42.124Z,11.70
2019-03-16T17:49:46.731Z,11.60
2019-03-16T17:53:51.312Z,11.60
2019-03-16T17:57:55.869Z,11.60
2019-03-16T18:02:00.440Z,11.70
2019-03-16T18:06:04.999Z,11.70
2019-03-16T18:10:09.621Z,11.80
2019-03-16T18:14:14.238Z,11.80
2019-03-16T18:18:18.797Z,11.80
2019-03-16T18:22:23.454Z,11.80
2019-03-16T18:26:28.051Z,11.80
2019-03-16T18:30:32.657Z,11.80
2019-03-16T18:34:37.620Z,11.70
2019-03-16T18:38:42.185Z,11.70
2019-03-16T18:42:46.746Z,11.70
2019-03-16T18:46:51.322Z,11.70
2019-03-16T18:50:56.146Z,11.70
2019-03-16T18:55:00.708Z,11.70
2019-03-16T18:59:05.285Z,11.80
2019-03-16T19:03:11.686Z,11.70
2019-03-16T19:07:16.060Z,11.70
2019-03-16T19:11:20.691Z,11.80
2019-03-16T19:15:25.297Z,11.80
2019-03-16T19:19:29.858Z,11.80
2019-03-16T19:23:34.508Z,11.70
2019-03-16T19:27:39.089Z,11.80
2019-03-16T19:31:43.702Z,11.70
2019-03-16T19:35:48.273Z,11.80
2019-03-16T19:39:52.830Z,11.70
2019-03-16T19:43:57.369Z,11.80
2019-03-16T19:48:03.172Z,11.80
2019-03-16T19:52:07.867Z,11.80
2019-03-16T19:56:12.449Z,11.80
2019-03-16T20:00:16.994Z,11.80
2019-03-16T20:04:21.533Z,11.80
2019-03-16T20:08:26.108Z,11.70
2019-03-16T20:12:30.671Z,11.70
2019-03-16T20:16:35.293Z,11.70
2019-03-16T20:20:39.825Z,11.70
2019-03-16T20:24:44.339Z,11.70
2019-03-16T20:28:48.911Z,11.70
2019-03-16T20:33:03.145Z,11.70
2019-03-16T20:36:59.741Z,11.80
2019-03-16T20:41:04.359Z,11.80
2019-03-16T20:45:08.960Z,11.80
2019-03-16T20:49:13.603Z,11.80
2019-03-16T20:53:18.191Z,11.80
2019-03-16T20:57:22.733Z,11.90
2019-03-16T21:01:27.474Z,11.80
2019-03-16T21:05:32.113Z,11.80
2019-03-16T21:09:36.689Z,11.80
2019-03-16T21:13:41.272Z,11.80
2019-03-16T21:17:45.936Z,11.80
2019-03-16T21:21:50.607Z,11.80
2019-03-16T21:25:55.145Z,11.80
2019-03-16T21:29:59.661Z,11.90
2019-03-16T21:34:04.233Z,11.80
2019-03-16T21:38:08.777Z,11.80
2019-03-16T21:42:13.383Z,11.70
2019-03-16T21:46:17.968Z,11.80
2019-03-16T21:50:22.505Z,11.80
2019-03-16T21:54:27.040Z,11.70
2019-03-16T21:58:31.592Z,11.80
2019-03-16T22:02:36.154Z,11.80
2019-03-16T22:06:40.717Z,11.70
2019-03-16T22:10:45.232Z,11.70
2019-03-16T22:14:49.821Z,11.70
2019-03-16T22:18:54.370Z,11.70
2019-03-16T22:22:58.978Z,11.80
2019-03-16T22:27:03.527Z,11.80
2019-03-16T22:31:08.057Z,11.80
2019-03-16T22:35:12.719Z,11.80
2019-03-16T22:39:17.265Z,11.80
2019-03-16T22:43:21.824Z,11.80
2019-03-16T22:47:26.400Z,11.80
2019-03-16T22:51:30.940Z,11.80
2019-03-16T22:55:35.508Z,11.80
2019-03-16T22:59:40.061Z,11.80
2019-03-16T23:03:44.736Z,11.70
2019-03-16T23:07:49.315Z,11.80
2019-03-16T23:11:53.828Z,11.80
2019-03-16T23:15:58.420Z,11.70
2019-03-16T23:20:02.966Z,11.80
2019-03-16T23:24:07.529Z,11.80
2019-03-16T23:28:12.043Z,11.80
2019-03-16T23:32:16.596Z,11.80
2019-03-16T23:36:21.157Z,11.80
2019-03-16T23:40:25.718Z,11.80
2019-03-16T23:44:30.287Z,11.80
2019-03-16T23:48:34.797Z,11.80
2019-03-16T23:52:39.394Z,11.80
2019-03-16T23:56:43.972Z,11.80
